sensor_id;sensor_type;location;lat;lon;timestamp;P1;durP1;ratioP1;P2;durP2;ratioP2
65033;SDS011;51601;51.356;12.458;2023-09-07T00:01:12;11.30;;;5.97;;
65033;SDS011;51601;51.356;12.458;2023-09-07T00:05:29;9.30;;;5.43;;
65033;SDS011;51601;51.356;12.458;2023-09-07T00:09:49;8.57;;;5.50;;
65033;SDS011;51601;51.356;12.458;2023-09-07T00:14:10;11.05;;;5.60;;
65033;SDS011;51601;51.356;12.458;2023-09-07T00:18:30;9.83;;;5.90;;
65033;SDS011;51601;51.356;12.458;2023-09-07T00:22:48;11.05;;;5.90;;
65033;SDS011;51601;51.356;12.458;2023-09-07T00:27:06;11.38;;;5.85;;
65033;SDS011;51601;51.356;12.458;2023-09-07T00:31:26;9.63;;;6.07;;
65033;SDS011;51601;51.356;12.458;2023-09-07T00:35:45;12.13;;;6.43;;
65033;SDS011;51601;51.356;12.458;2023-09-07T00:40:04;10.18;;;6.15;;
65033;SDS011;51601;51.356;12.458;2023-09-07T00:44:24;11.20;;;5.97;;
65033;SDS011;51601;51.356;12.458;2023-09-07T00:48:44;10.90;;;6.00;;
65033;SDS011;51601;51.356;12.458;2023-09-07T00:53:04;11.15;;;6.60;;
65033;SDS011;51601;51.356;12.458;2023-09-07T00:57:25;11.55;;;6.70;;
65033;SDS011;51601;51.356;12.458;2023-09-07T01:01:43;10.57;;;6.87;;
65033;SDS011;51601;51.356;12.458;2023-09-07T01:06:03;10.07;;;6.63;;
65033;SDS011;51601;51.356;12.458;2023-09-07T01:10:25;11.73;;;7.20;;
65033;SDS011;51601;51.356;12.458;2023-09-07T01:14:43;12.53;;;7.03;;
65033;SDS011;51601;51.356;12.458;2023-09-07T01:19:01;11.32;;;7.07;;
65033;SDS011;51601;51.356;12.458;2023-09-07T01:23:24;13.15;;;6.80;;
65033;SDS011;51601;51.356;12.458;2023-09-07T01:27:43;12.77;;;7.70;;
65033;SDS011;51601;51.356;12.458;2023-09-07T01:32:01;13.23;;;7.07;;
65033;SDS011;51601;51.356;12.458;2023-09-07T01:36:19;12.15;;;7.55;;
65033;SDS011;51601;51.356;12.458;2023-09-07T01:40:39;14.13;;;7.25;;
65033;SDS011;51601;51.356;12.458;2023-09-07T01:44:59;12.53;;;7.73;;
65033;SDS011;51601;51.356;12.458;2023-09-07T01:49:17;11.95;;;7.38;;
65033;SDS011;51601;51.356;12.458;2023-09-07T01:53:35;12.30;;;6.97;;
65033;SDS011;51601;51.356;12.458;2023-09-07T01:57:54;12.07;;;7.87;;
65033;SDS011;51601;51.356;12.458;2023-09-07T02:02:11;13.00;;;7.85;;
65033;SDS011;51601;51.356;12.458;2023-09-07T02:06:29;12.35;;;8.30;;
65033;SDS011;51601;51.356;12.458;2023-09-07T02:10:47;13.32;;;8.10;;
65033;SDS011;51601;51.356;12.458;2023-09-07T02:15:07;13.00;;;8.20;;
65033;SDS011;51601;51.356;12.458;2023-09-07T02:19:26;13.18;;;8.10;;
65033;SDS011;51601;51.356;12.458;2023-09-07T02:23:44;14.70;;;8.73;;
65033;SDS011;51601;51.356;12.458;2023-09-07T02:28:02;12.60;;;8.00;;
65033;SDS011;51601;51.356;12.458;2023-09-07T02:32:22;13.85;;;7.80;;
65033;SDS011;51601;51.356;12.458;2023-09-07T02:36:41;12.63;;;7.78;;
65033;SDS011;51601;51.356;12.458;2023-09-07T02:40:59;11.50;;;7.83;;
65033;SDS011;51601;51.356;12.458;2023-09-07T02:45:17;14.57;;;7.78;;
65033;SDS011;51601;51.356;12.458;2023-09-07T02:49:37;11.88;;;7.60;;
65033;SDS011;51601;51.356;12.458;2023-09-07T02:53:57;13.35;;;7.47;;
65033;SDS011;51601;51.356;12.458;2023-09-07T02:58:15;14.53;;;7.87;;
65033;SDS011;51601;51.356;12.458;2023-09-07T03:02:36;15.05;;;7.90;;
65033;SDS011;51601;51.356;12.458;2023-09-07T03:06:55;11.63;;;7.28;;
65033;SDS011;51601;51.356;12.458;2023-09-07T03:11:15;13.17;;;8.40;;
65033;SDS011;51601;51.356;12.458;2023-09-07T03:15:36;14.30;;;8.23;;
65033;SDS011;51601;51.356;12.458;2023-09-07T03:19:57;12.10;;;8.05;;
65033;SDS011;51601;51.356;12.458;2023-09-07T03:24:17;13.73;;;8.03;;
65033;SDS011;51601;51.356;12.458;2023-09-07T03:28:33;13.90;;;8.52;;
65033;SDS011;51601;51.356;12.458;2023-09-07T03:32:51;14.05;;;8.35;;
65033;SDS011;51601;51.356;12.458;2023-09-07T03:37:09;13.90;;;8.65;;
65033;SDS011;51601;51.356;12.458;2023-09-07T03:41:29;14.90;;;9.20;;
65033;SDS011;51601;51.356;12.458;2023-09-07T03:45:49;13.80;;;8.90;;
65033;SDS011;51601;51.356;12.458;2023-09-07T03:50:07;14.32;;;8.95;;
65033;SDS011;51601;51.356;12.458;2023-09-07T03:54:25;13.30;;;8.70;;
65033;SDS011;51601;51.356;12.458;2023-09-07T03:58:44;13.10;;;8.65;;
65033;SDS011;51601;51.356;12.458;2023-09-07T04:03:04;17.25;;;9.23;;
65033;SDS011;51601;51.356;12.458;2023-09-07T04:07:25;14.43;;;9.20;;
65033;SDS011;51601;51.356;12.458;2023-09-07T04:11:43;14.57;;;9.98;;
65033;SDS011;51601;51.356;12.458;2023-09-07T04:16:03;16.52;;;9.85;;
65033;SDS011;51601;51.356;12.458;2023-09-07T04:20:22;15.77;;;9.48;;
65033;SDS011;51601;51.356;12.458;2023-09-07T04:24:46;16.00;;;9.20;;
65033;SDS011;51601;51.356;12.458;2023-09-07T04:29:06;15.90;;;9.70;;
65033;SDS011;51601;51.356;12.458;2023-09-07T04:33:27;15.63;;;9.90;;
65033;SDS011;51601;51.356;12.458;2023-09-07T04:37:47;15.03;;;10.17;;
65033;SDS011;51601;51.356;12.458;2023-09-07T04:42:05;19.13;;;9.00;;
65033;SDS011;51601;51.356;12.458;2023-09-07T04:46:23;15.18;;;9.93;;
65033;SDS011;51601;51.356;12.458;2023-09-07T04:50:42;16.67;;;9.40;;
65033;SDS011;51601;51.356;12.458;2023-09-07T04:55:02;16.10;;;10.25;;
65033;SDS011;51601;51.356;12.458;2023-09-07T04:59:23;19.65;;;11.70;;
65033;SDS011;51601;51.356;12.458;2023-09-07T05:03:41;14.25;;;9.55;;
65033;SDS011;51601;51.356;12.458;2023-09-07T05:08:01;14.37;;;8.93;;
65033;SDS011;51601;51.356;12.458;2023-09-07T05:12:20;14.40;;;8.48;;
65033;SDS011;51601;51.356;12.458;2023-09-07T05:16:39;14.80;;;8.80;;
65033;SDS011;51601;51.356;12.458;2023-09-07T05:21:00;13.50;;;8.60;;
65033;SDS011;51601;51.356;12.458;2023-09-07T05:25:19;14.40;;;8.57;;
65033;SDS011;51601;51.356;12.458;2023-09-07T05:29:39;13.85;;;8.70;;
65033;SDS011;51601;51.356;12.458;2023-09-07T05:33:57;15.63;;;9.10;;
65033;SDS011;51601;51.356;12.458;2023-09-07T05:38:15;14.55;;;8.88;;
65033;SDS011;51601;51.356;12.458;2023-09-07T05:42:34;13.20;;;8.70;;
65033;SDS011;51601;51.356;12.458;2023-09-07T05:46:51;13.20;;;8.80;;
65033;SDS011;51601;51.356;12.458;2023-09-07T05:51:09;11.63;;;7.83;;
65033;SDS011;51601;51.356;12.458;2023-09-07T05:55:27;13.80;;;8.30;;
65033;SDS011;51601;51.356;12.458;2023-09-07T05:59:50;13.13;;;8.35;;
65033;SDS011;51601;51.356;12.458;2023-09-07T06:04:09;12.90;;;8.00;;
65033;SDS011;51601;51.356;12.458;2023-09-07T06:08:28;14.32;;;8.00;;
65033;SDS011;51601;51.356;12.458;2023-09-07T06:12:46;13.23;;;8.27;;
65033;SDS011;51601;51.356;12.458;2023-09-07T06:17:05;10.83;;;7.90;;
65033;SDS011;51601;51.356;12.458;2023-09-07T06:21:25;13.52;;;7.65;;
65033;SDS011;51601;51.356;12.458;2023-09-07T06:25:43;12.10;;;7.70;;
65033;SDS011;51601;51.356;12.458;2023-09-07T06:30:01;14.55;;;7.18;;
65033;SDS011;51601;51.356;12.458;2023-09-07T06:34:20;10.90;;;6.80;;
65033;SDS011;51601;51.356;12.458;2023-09-07T06:38:40;11.63;;;6.95;;
65033;SDS011;51601;51.356;12.458;2023-09-07T06:42:58;12.35;;;7.38;;
65033;SDS011;51601;51.356;12.458;2023-09-07T06:47:16;12.47;;;7.50;;
65033;SDS011;51601;51.356;12.458;2023-09-07T06:51:36;14.93;;;8.10;;
65033;SDS011;51601;51.356;12.458;2023-09-07T06:55:59;13.02;;;7.75;;
65033;SDS011;51601;51.356;12.458;2023-09-07T07:00:20;12.67;;;7.47;;
65033;SDS011;51601;51.356;12.458;2023-09-07T07:04:38;12.20;;;7.43;;
65033;SDS011;51601;51.356;12.458;2023-09-07T07:08:57;13.73;;;6.85;;
65033;SDS011;51601;51.356;12.458;2023-09-07T07:13:17;10.13;;;6.75;;
65033;SDS011;51601;51.356;12.458;2023-09-07T07:17:35;9.53;;;6.37;;
65033;SDS011;51601;51.356;12.458;2023-09-07T07:21:53;8.73;;;5.80;;
65033;SDS011;51601;51.356;12.458;2023-09-07T07:26:12;10.48;;;5.90;;
65033;SDS011;51601;51.356;12.458;2023-09-07T07:30:32;10.50;;;6.17;;
65033;SDS011;51601;51.356;12.458;2023-09-07T07:34:50;9.30;;;5.68;;
65033;SDS011;51601;51.356;12.458;2023-09-07T07:39:08;9.52;;;5.70;;
65033;SDS011;51601;51.356;12.458;2023-09-07T07:43:28;10.80;;;5.63;;
65033;SDS011;51601;51.356;12.458;2023-09-07T07:47:48;11.98;;;5.28;;
65033;SDS011;51601;51.356;12.458;2023-09-07T07:52:05;10.50;;;5.05;;
65033;SDS011;51601;51.356;12.458;2023-09-07T07:56:23;9.85;;;5.15;;
65033;SDS011;51601;51.356;12.458;2023-09-07T08:00:46;10.10;;;5.20;;
65033;SDS011;51601;51.356;12.458;2023-09-07T08:05:09;8.00;;;5.10;;
65033;SDS011;51601;51.356;12.458;2023-09-07T08:09:27;7.70;;;4.80;;
65033;SDS011;51601;51.356;12.458;2023-09-07T08:13:45;9.60;;;4.70;;
65033;SDS011;51601;51.356;12.458;2023-09-07T08:18:05;7.50;;;4.70;;
65033;SDS011;51601;51.356;12.458;2023-09-07T08:22:24;8.00;;;4.80;;
65033;SDS011;51601;51.356;12.458;2023-09-07T08:26:45;7.40;;;4.67;;
65033;SDS011;51601;51.356;12.458;2023-09-07T08:31:06;7.82;;;4.72;;
65033;SDS011;51601;51.356;12.458;2023-09-07T08:35:29;9.00;;;5.03;;
65033;SDS011;51601;51.356;12.458;2023-09-07T08:39:53;8.95;;;4.82;;
65033;SDS011;51601;51.356;12.458;2023-09-07T08:44:15;8.40;;;4.97;;
65033;SDS011;51601;51.356;12.458;2023-09-07T08:48:34;12.13;;;5.32;;
65033;SDS011;51601;51.356;12.458;2023-09-07T08:52:53;11.43;;;4.70;;
65033;SDS011;51601;51.356;12.458;2023-09-07T08:57:10;9.60;;;4.67;;
65033;SDS011;51601;51.356;12.458;2023-09-07T09:01:28;7.28;;;4.30;;
65033;SDS011;51601;51.356;12.458;2023-09-07T09:05:52;8.07;;;4.50;;
65033;SDS011;51601;51.356;12.458;2023-09-07T09:10:12;9.07;;;4.60;;
65033;SDS011;51601;51.356;12.458;2023-09-07T09:14:30;8.82;;;4.95;;
65033;SDS011;51601;51.356;12.458;2023-09-07T09:18:50;9.32;;;4.68;;
65033;SDS011;51601;51.356;12.458;2023-09-07T09:23:07;8.23;;;3.95;;
65033;SDS011;51601;51.356;12.458;2023-09-07T09:27:27;6.87;;;4.10;;
65033;SDS011;51601;51.356;12.458;2023-09-07T09:31:44;7.95;;;4.03;;
65033;SDS011;51601;51.356;12.458;2023-09-07T09:36:02;6.93;;;3.92;;
65033;SDS011;51601;51.356;12.458;2023-09-07T09:40:20;8.27;;;4.00;;
65033;SDS011;51601;51.356;12.458;2023-09-07T09:44:39;8.38;;;3.58;;
65033;SDS011;51601;51.356;12.458;2023-09-07T09:48:59;7.05;;;4.00;;
65033;SDS011;51601;51.356;12.458;2023-09-07T09:53:17;6.93;;;4.10;;
65033;SDS011;51601;51.356;12.458;2023-09-07T09:57:38;6.95;;;4.05;;
65033;SDS011;51601;51.356;12.458;2023-09-07T10:02:00;6.70;;;3.92;;
65033;SDS011;51601;51.356;12.458;2023-09-07T10:06:22;8.20;;;4.05;;
65033;SDS011;51601;51.356;12.458;2023-09-07T10:10:42;8.40;;;4.00;;
65033;SDS011;51601;51.356;12.458;2023-09-07T10:15:00;7.43;;;3.92;;
65033;SDS011;51601;51.356;12.458;2023-09-07T10:19:23;7.20;;;4.10;;
65033;SDS011;51601;51.356;12.458;2023-09-07T10:23:42;9.13;;;4.00;;
65033;SDS011;51601;51.356;12.458;2023-09-07T10:28:16;8.18;;;4.13;;
65033;SDS011;51601;51.356;12.458;2023-09-07T10:32:39;7.18;;;3.95;;
65033;SDS011;51601;51.356;12.458;2023-09-07T10:36:59;7.93;;;4.13;;
65033;SDS011;51601;51.356;12.458;2023-09-07T10:41:19;8.15;;;4.13;;
65033;SDS011;51601;51.356;12.458;2023-09-07T10:45:37;7.75;;;4.03;;
65033;SDS011;51601;51.356;12.458;2023-09-07T10:49:56;6.55;;;3.67;;
65033;SDS011;51601;51.356;12.458;2023-09-07T10:54:23;8.07;;;3.80;;
65033;SDS011;51601;51.356;12.458;2023-09-07T10:58:40;7.45;;;3.95;;
65033;SDS011;51601;51.356;12.458;2023-09-07T11:02:58;7.25;;;4.07;;
65033;SDS011;51601;51.356;12.458;2023-09-07T11:07:16;6.43;;;3.53;;
65033;SDS011;51601;51.356;12.458;2023-09-07T11:11:36;6.90;;;3.95;;
65033;SDS011;51601;51.356;12.458;2023-09-07T11:15:56;8.38;;;4.00;;
65033;SDS011;51601;51.356;12.458;2023-09-07T11:20:13;8.77;;;4.07;;
65033;SDS011;51601;51.356;12.458;2023-09-07T11:24:31;7.15;;;4.10;;
65033;SDS011;51601;51.356;12.458;2023-09-07T11:28:54;6.90;;;3.83;;
65033;SDS011;51601;51.356;12.458;2023-09-07T11:33:14;8.95;;;3.90;;
65033;SDS011;51601;51.356;12.458;2023-09-07T11:37:32;8.83;;;4.30;;
65033;SDS011;51601;51.356;12.458;2023-09-07T11:41:50;7.72;;;3.88;;
65033;SDS011;51601;51.356;12.458;2023-09-07T11:46:09;7.15;;;4.00;;
65033;SDS011;51601;51.356;12.458;2023-09-07T11:50:29;7.80;;;4.20;;
65033;SDS011;51601;51.356;12.458;2023-09-07T11:54:47;8.50;;;3.70;;
65033;SDS011;51601;51.356;12.458;2023-09-07T11:59:05;7.55;;;4.07;;
65033;SDS011;51601;51.356;12.458;2023-09-07T12:03:25;7.37;;;3.90;;
65033;SDS011;51601;51.356;12.458;2023-09-07T12:07:44;7.72;;;3.90;;
65033;SDS011;51601;51.356;12.458;2023-09-07T12:12:03;8.90;;;4.30;;
65033;SDS011;51601;51.356;12.458;2023-09-07T12:16:20;6.75;;;4.15;;
65033;SDS011;51601;51.356;12.458;2023-09-07T12:20:40;8.30;;;4.00;;
65033;SDS011;51601;51.356;12.458;2023-09-07T12:25:00;7.07;;;3.58;;
65033;SDS011;51601;51.356;12.458;2023-09-07T12:29:30;7.97;;;4.00;;
65033;SDS011;51601;51.356;12.458;2023-09-07T12:33:48;7.97;;;3.97;;
65033;SDS011;51601;51.356;12.458;2023-09-07T12:42:46;7.50;;;3.55;;
65033;SDS011;51601;51.356;12.458;2023-09-07T12:47:04;6.90;;;3.70;;
65033;SDS011;51601;51.356;12.458;2023-09-07T12:51:22;6.88;;;3.53;;
65033;SDS011;51601;51.356;12.458;2023-09-07T12:55:41;7.22;;;2.70;;
65033;SDS011;51601;51.356;12.458;2023-09-07T12:59:58;6.40;;;3.35;;
65033;SDS011;51601;51.356;12.458;2023-09-07T13:04:16;6.47;;;3.40;;
65033;SDS011;51601;51.356;12.458;2023-09-07T13:08:34;7.68;;;3.50;;
65033;SDS011;51601;51.356;12.458;2023-09-07T13:12:53;8.65;;;3.30;;
65033;SDS011;51601;51.356;12.458;2023-09-07T13:17:12;7.30;;;3.30;;
65033;SDS011;51601;51.356;12.458;2023-09-07T13:21:31;7.03;;;3.55;;
65033;SDS011;51601;51.356;12.458;2023-09-07T13:25:49;7.10;;;3.08;;
65033;SDS011;51601;51.356;12.458;2023-09-07T13:30:09;6.93;;;3.43;;
65033;SDS011;51601;51.356;12.458;2023-09-07T13:34:28;8.27;;;3.50;;
65033;SDS011;51601;51.356;12.458;2023-09-07T13:38:46;8.70;;;3.38;;
65033;SDS011;51601;51.356;12.458;2023-09-07T13:43:08;9.73;;;3.47;;
65033;SDS011;51601;51.356;12.458;2023-09-07T13:47:27;7.27;;;3.33;;
65033;SDS011;51601;51.356;12.458;2023-09-07T13:51:47;5.35;;;2.63;;
65033;SDS011;51601;51.356;12.458;2023-09-07T13:56:05;7.15;;;3.40;;
65033;SDS011;51601;51.356;12.458;2023-09-07T14:00:32;8.17;;;3.47;;
65033;SDS011;51601;51.356;12.458;2023-09-07T14:04:52;6.43;;;3.38;;
65033;SDS011;51601;51.356;12.458;2023-09-07T14:09:11;8.30;;;3.70;;
65033;SDS011;51601;51.356;12.458;2023-09-07T14:13:31;8.20;;;3.47;;
65033;SDS011;51601;51.356;12.458;2023-09-07T14:17:51;8.73;;;3.38;;
65033;SDS011;51601;51.356;12.458;2023-09-07T14:22:10;6.72;;;3.10;;
65033;SDS011;51601;51.356;12.458;2023-09-07T14:26:30;6.65;;;3.35;;
65033;SDS011;51601;51.356;12.458;2023-09-07T14:30:48;6.63;;;3.20;;
65033;SDS011;51601;51.356;12.458;2023-09-07T14:35:06;7.65;;;3.85;;
65033;SDS011;51601;51.356;12.458;2023-09-07T14:39:25;6.90;;;3.00;;
65033;SDS011;51601;51.356;12.458;2023-09-07T14:43:45;8.30;;;3.20;;
65033;SDS011;51601;51.356;12.458;2023-09-07T14:48:03;7.20;;;3.28;;
65033;SDS011;51601;51.356;12.458;2023-09-07T14:52:21;5.80;;;2.88;;
65033;SDS011;51601;51.356;12.458;2023-09-07T14:56:46;7.30;;;3.20;;
65033;SDS011;51601;51.356;12.458;2023-09-07T15:01:04;7.00;;;3.05;;
65033;SDS011;51601;51.356;12.458;2023-09-07T15:05:22;7.25;;;2.70;;
65033;SDS011;51601;51.356;12.458;2023-09-07T15:09:40;5.28;;;2.47;;
65033;SDS011;51601;51.356;12.458;2023-09-07T15:13:59;8.93;;;3.13;;
65033;SDS011;51601;51.356;12.458;2023-09-07T15:18:19;8.60;;;3.10;;
65033;SDS011;51601;51.356;12.458;2023-09-07T15:22:37;6.10;;;2.80;;
65033;SDS011;51601;51.356;12.458;2023-09-07T15:26:56;6.30;;;3.10;;
65033;SDS011;51601;51.356;12.458;2023-09-07T15:31:14;6.18;;;3.03;;
65033;SDS011;51601;51.356;12.458;2023-09-07T15:35:31;6.18;;;3.13;;
65033;SDS011;51601;51.356;12.458;2023-09-07T15:39:49;7.53;;;3.30;;
65033;SDS011;51601;51.356;12.458;2023-09-07T15:44:07;6.97;;;3.30;;
65033;SDS011;51601;51.356;12.458;2023-09-07T15:48:26;6.47;;;3.30;;
65033;SDS011;51601;51.356;12.458;2023-09-07T15:52:47;7.07;;;2.90;;
65033;SDS011;51601;51.356;12.458;2023-09-07T15:57:07;6.97;;;3.10;;
65033;SDS011;51601;51.356;12.458;2023-09-07T16:01:25;7.78;;;3.10;;
65033;SDS011;51601;51.356;12.458;2023-09-07T16:05:48;8.50;;;3.40;;
65033;SDS011;51601;51.356;12.458;2023-09-07T16:10:05;6.17;;;3.23;;
65033;SDS011;51601;51.356;12.458;2023-09-07T16:14:23;6.78;;;3.50;;
65033;SDS011;51601;51.356;12.458;2023-09-07T16:18:41;6.95;;;3.28;;
65033;SDS011;51601;51.356;12.458;2023-09-07T16:23:00;7.93;;;3.83;;
65033;SDS011;51601;51.356;12.458;2023-09-07T16:27:20;8.55;;;3.80;;
65033;SDS011;51601;51.356;12.458;2023-09-07T16:31:38;7.40;;;3.78;;
65033;SDS011;51601;51.356;12.458;2023-09-07T16:35:56;8.85;;;4.20;;
65033;SDS011;51601;51.356;12.458;2023-09-07T16:40:18;7.53;;;3.13;;
65033;SDS011;51601;51.356;12.458;2023-09-07T16:44:38;7.47;;;3.88;;
65033;SDS011;51601;51.356;12.458;2023-09-07T16:48:56;7.93;;;4.13;;
65033;SDS011;51601;51.356;12.458;2023-09-07T16:53:14;8.07;;;4.20;;
65033;SDS011;51601;51.356;12.458;2023-09-07T16:57:37;10.63;;;4.50;;
65033;SDS011;51601;51.356;12.458;2023-09-07T17:01:57;10.60;;;4.80;;
65033;SDS011;51601;51.356;12.458;2023-09-07T17:06:15;8.87;;;4.67;;
65033;SDS011;51601;51.356;12.458;2023-09-07T17:10:33;8.15;;;4.68;;
65033;SDS011;51601;51.356;12.458;2023-09-07T17:14:55;8.90;;;4.55;;
65033;SDS011;51601;51.356;12.458;2023-09-07T17:19:15;8.43;;;4.68;;
65033;SDS011;51601;51.356;12.458;2023-09-07T17:23:33;11.87;;;4.67;;
65033;SDS011;51601;51.356;12.458;2023-09-07T17:27:51;7.95;;;4.72;;
65033;SDS011;51601;51.356;12.458;2023-09-07T17:32:10;9.20;;;4.53;;
65033;SDS011;51601;51.356;12.458;2023-09-07T17:36:33;8.33;;;4.57;;
65033;SDS011;51601;51.356;12.458;2023-09-07T17:40:51;10.65;;;4.82;;
65033;SDS011;51601;51.356;12.458;2023-09-07T17:45:09;9.38;;;4.90;;
65033;SDS011;51601;51.356;12.458;2023-09-07T17:49:29;9.10;;;4.90;;
65033;SDS011;51601;51.356;12.458;2023-09-07T17:53:48;8.63;;;5.25;;
65033;SDS011;51601;51.356;12.458;2023-09-07T17:58:07;10.77;;;5.25;;
65033;SDS011;51601;51.356;12.458;2023-09-07T18:02:26;8.55;;;4.97;;
65033;SDS011;51601;51.356;12.458;2023-09-07T18:06:48;9.40;;;4.87;;
65033;SDS011;51601;51.356;12.458;2023-09-07T18:11:07;9.90;;;5.40;;
65033;SDS011;51601;51.356;12.458;2023-09-07T18:15:25;10.05;;;5.00;;
65033;SDS011;51601;51.356;12.458;2023-09-07T18:19:43;10.23;;;5.37;;
65033;SDS011;51601;51.356;12.458;2023-09-07T18:24:03;11.30;;;5.22;;
65033;SDS011;51601;51.356;12.458;2023-09-07T18:28:22;8.48;;;5.38;;
65033;SDS011;51601;51.356;12.458;2023-09-07T18:32:40;11.17;;;5.13;;
65033;SDS011;51601;51.356;12.458;2023-09-07T18:36:58;8.73;;;5.45;;
65033;SDS011;51601;51.356;12.458;2023-09-07T18:41:18;8.45;;;5.00;;
65033;SDS011;51601;51.356;12.458;2023-09-07T18:45:38;10.90;;;5.22;;
65033;SDS011;51601;51.356;12.458;2023-09-07T18:49:56;8.90;;;4.93;;
65033;SDS011;51601;51.356;12.458;2023-09-07T18:54:14;9.93;;;4.97;;
65033;SDS011;51601;51.356;12.458;2023-09-07T18:58:35;8.57;;;4.40;;
65033;SDS011;51601;51.356;12.458;2023-09-07T19:02:53;8.20;;;4.37;;
65033;SDS011;51601;51.356;12.458;2023-09-07T19:07:11;10.77;;;4.95;;
65033;SDS011;51601;51.356;12.458;2023-09-07T19:11:32;9.43;;;4.90;;
65033;SDS011;51601;51.356;12.458;2023-09-07T19:15:51;8.83;;;4.60;;
65033;SDS011;51601;51.356;12.458;2023-09-07T19:20:13;8.88;;;4.10;;
65033;SDS011;51601;51.356;12.458;2023-09-07T19:24:32;11.38;;;4.63;;
65033;SDS011;51601;51.356;12.458;2023-09-07T19:28:50;9.02;;;4.70;;
65033;SDS011;51601;51.356;12.458;2023-09-07T19:33:10;11.73;;;4.60;;
65033;SDS011;51601;51.356;12.458;2023-09-07T19:37:30;8.60;;;4.80;;
65033;SDS011;51601;51.356;12.458;2023-09-07T19:41:48;9.55;;;4.45;;
65033;SDS011;51601;51.356;12.458;2023-09-07T19:46:06;9.00;;;3.93;;
65033;SDS011;51601;51.356;12.458;2023-09-07T19:50:25;9.55;;;4.45;;
65033;SDS011;51601;51.356;12.458;2023-09-07T19:54:47;10.55;;;4.90;;
65033;SDS011;51601;51.356;12.458;2023-09-07T19:59:06;9.87;;;4.50;;
65033;SDS011;51601;51.356;12.458;2023-09-07T20:03:24;9.10;;;4.88;;
65033;SDS011;51601;51.356;12.458;2023-09-07T20:07:43;8.65;;;4.60;;
65033;SDS011;51601;51.356;12.458;2023-09-07T20:12:06;11.32;;;4.90;;
65033;SDS011;51601;51.356;12.458;2023-09-07T20:16:24;8.43;;;3.90;;
65033;SDS011;51601;51.356;12.458;2023-09-07T20:20:42;8.93;;;4.68;;
65033;SDS011;51601;51.356;12.458;2023-09-07T20:25:02;11.68;;;5.10;;
65033;SDS011;51601;51.356;12.458;2023-09-07T20:29:21;8.73;;;4.80;;
65033;SDS011;51601;51.356;12.458;2023-09-07T20:33:40;10.73;;;4.97;;
65033;SDS011;51601;51.356;12.458;2023-09-07T20:37:58;10.07;;;4.90;;
65033;SDS011;51601;51.356;12.458;2023-09-07T20:42:20;9.60;;;4.53;;
65033;SDS011;51601;51.356;12.458;2023-09-07T20:46:40;11.70;;;5.25;;
65033;SDS011;51601;51.356;12.458;2023-09-07T20:50:58;9.95;;;4.90;;
65033;SDS011;51601;51.356;12.458;2023-09-07T20:55:16;12.90;;;5.30;;
65033;SDS011;51601;51.356;12.458;2023-09-07T20:59:35;8.77;;;5.00;;
65033;SDS011;51601;51.356;12.458;2023-09-07T21:03:52;10.18;;;5.03;;
65033;SDS011;51601;51.356;12.458;2023-09-07T21:08:10;11.27;;;5.47;;
65033;SDS011;51601;51.356;12.458;2023-09-07T21:12:28;10.60;;;5.23;;
65033;SDS011;51601;51.356;12.458;2023-09-07T21:16:48;9.57;;;4.90;;
65033;SDS011;51601;51.356;12.458;2023-09-07T21:21:07;12.20;;;5.70;;
65033;SDS011;51601;51.356;12.458;2023-09-07T21:25:25;10.23;;;5.20;;
65033;SDS011;51601;51.356;12.458;2023-09-07T21:29:43;9.05;;;5.05;;
65033;SDS011;51601;51.356;12.458;2023-09-07T21:34:06;11.10;;;5.38;;
65033;SDS011;51601;51.356;12.458;2023-09-07T21:38:26;10.57;;;5.53;;
65033;SDS011;51601;51.356;12.458;2023-09-07T21:42:47;9.57;;;5.40;;
65033;SDS011;51601;51.356;12.458;2023-09-07T21:47:05;9.65;;;5.70;;
65033;SDS011;51601;51.356;12.458;2023-09-07T21:51:27;10.75;;;5.40;;
65033;SDS011;51601;51.356;12.458;2023-09-07T21:55:47;12.10;;;5.63;;
65033;SDS011;51601;51.356;12.458;2023-09-07T22:00:06;11.43;;;5.18;;
65033;SDS011;51601;51.356;12.458;2023-09-07T22:04:26;10.02;;;5.35;;
65033;SDS011;51601;51.356;12.458;2023-09-07T22:08:46;11.10;;;4.80;;
65033;SDS011;51601;51.356;12.458;2023-09-07T22:13:03;10.27;;;5.18;;
65033;SDS011;51601;51.356;12.458;2023-09-07T22:17:21;11.93;;;5.80;;
65033;SDS011;51601;51.356;12.458;2023-09-07T22:21:39;11.48;;;5.53;;
65033;SDS011;51601;51.356;12.458;2023-09-07T22:25:58;11.80;;;5.80;;
65033;SDS011;51601;51.356;12.458;2023-09-07T22:30:18;10.60;;;6.00;;
65033;SDS011;51601;51.356;12.458;2023-09-07T22:34:36;10.45;;;5.72;;
65033;SDS011;51601;51.356;12.458;2023-09-07T22:38:54;11.83;;;6.07;;
65033;SDS011;51601;51.356;12.458;2023-09-07T22:43:13;10.80;;;5.78;;
65033;SDS011;51601;51.356;12.458;2023-09-07T22:47:30;11.95;;;5.68;;
65033;SDS011;51601;51.356;12.458;2023-09-07T22:51:48;10.53;;;6.37;;
65033;SDS011;51601;51.356;12.458;2023-09-07T22:56:06;11.05;;;6.15;;
65033;SDS011;51601;51.356;12.458;2023-09-07T23:00:26;12.43;;;6.10;;
65033;SDS011;51601;51.356;12.458;2023-09-07T23:04:45;11.05;;;6.07;;
65033;SDS011;51601;51.356;12.458;2023-09-07T23:09:05;11.87;;;5.90;;
65033;SDS011;51601;51.356;12.458;2023-09-07T23:13:24;15.27;;;6.28;;
65033;SDS011;51601;51.356;12.458;2023-09-07T23:18:12;11.63;;;6.60;;
65033;SDS011;51601;51.356;12.458;2023-09-07T23:22:31;14.30;;;6.27;;
65033;SDS011;51601;51.356;12.458;2023-09-07T23:26:49;11.27;;;6.38;;
65033;SDS011;51601;51.356;12.458;2023-09-07T23:31:07;12.82;;;6.40;;
65033;SDS011;51601;51.356;12.458;2023-09-07T23:35:27;11.13;;;6.33;;
65033;SDS011;51601;51.356;12.458;2023-09-07T23:39:47;11.38;;;6.78;;
65033;SDS011;51601;51.356;12.458;2023-09-07T23:44:05;11.45;;;6.70;;
65033;SDS011;51601;51.356;12.458;2023-09-07T23:48:23;11.20;;;6.70;;
65033;SDS011;51601;51.356;12.458;2023-09-07T23:52:42;12.93;;;6.97;;
65033;SDS011;51601;51.356;12.458;2023-09-07T23:57:02;14.52;;;7.07;;
